Time;durP1;ratioP1;P1;durP2;ratioP2;P2;SDS_P1;SDS_P2;PMS_P1;PMS_P2;Temp;Humidity;BMP_temperature;BMP_pressure;BME280_temperature;BME280_humidity;BME280_pressure;Samples;Min_cycle;Max_cycle;Signal;HPM_P1;HPM_P2
2021/10/23 00:02:56;;;;;;;29.48;17.83;;;12.90;99.90;;;;;;5063981;28;20119;-71
2021/10/23 00:06:00;;;;;;;36.10;18.98;;;12.80;99.90;;;;;;5067730;28;20048;-71
2021/10/23 00:09:05;;;;;;;35.53;19.60;;;12.80;99.90;;;;;;5068110;28;20027;-71
2021/10/23 00:12:09;;;;;;;34.58;21.67;;;12.70;99.90;;;;;;5062560;28;20044;-71
2021/10/23 00:15:14;;;;;;;35.47;20.92;;;12.60;99.90;;;;;;5066630;28;20501;-71
2021/10/23 00:18:18;;;;;;;33.15;19.08;;;12.60;99.90;;;;;;5058418;28;20043;-71
2021/10/23 00:21:21;;;;;;;33.08;19.58;;;12.50;99.90;;;;;;5062879;28;20494;-71
2021/10/23 00:24:26;;;;;;;39.22;21.95;;;12.50;99.90;;;;;;5065719;28;20040;-71
2021/10/23 00:27:31;;;;;;;40.15;23.30;;;12.40;99.90;;;;;;5058364;28;20064;-71
2021/10/23 00:30:35;;;;;;;58.03;23.42;;;12.40;99.90;;;;;;5068090;28;20043;-71
2021/10/23 00:33:39;;;;;;;48.08;26.27;;;12.40;99.90;;;;;;5062804;28;20048;-71
2021/10/23 00:36:43;;;;;;;43.10;24.77;;;12.40;99.90;;;;;;5055139;28;20048;-71
2021/10/23 00:39:47;;;;;;;53.70;28.80;;;12.40;99.90;;;;;;5062930;28;20486;-71
2021/10/23 00:42:53;;;;;;;53.72;28.23;;;12.40;99.90;;;;;;5065337;28;20043;-71
2021/10/23 00:45:57;;;;;;;54.10;28.73;;;12.50;99.90;;;;;;5067319;28;20039;-71
2021/10/23 00:49:02;;;;;;;48.20;26.52;;;12.50;99.90;;;;;;5056862;28;20048;-71
2021/10/23 00:52:08;;;;;;;69.70;36.00;;;12.50;99.90;;;;;;5067461;28;20047;-71
2021/10/23 00:55:12;;;;;;;51.97;26.83;;;12.60;99.90;;;;;;5057559;28;20490;-71
2021/10/23 00:58:16;;;;;;;42.58;23.17;;;12.60;99.90;;;;;;5065226;28;20375;-71
2021/10/23 01:01:21;;;;;;;47.45;24.85;;;12.50;99.90;;;;;;5065250;28;20044;-71
2021/10/23 01:04:26;;;;;;;103.57;28.52;;;12.50;99.90;;;;;;5059180;28;20294;-71
2021/10/23 01:07:31;;;;;;;43.50;22.70;;;12.40;99.90;;;;;;5056908;28;20071;-71
2021/10/23 01:10:35;;;;;;;41.78;22.70;;;12.40;99.90;;;;;;5058633;28;20047;-71
2021/10/23 01:13:40;;;;;;;38.10;21.55;;;12.30;99.90;;;;;;5061309;28;20035;-71
2021/10/23 01:16:45;;;;;;;36.83;20.58;;;12.30;99.90;;;;;;5058489;28;20051;-71
2021/10/23 01:19:51;;;;;;;34.00;18.90;;;12.30;99.90;;;;;;5065212;28;20577;-71
2021/10/23 01:22:56;;;;;;;33.75;17.98;;;12.20;99.90;;;;;;5060567;28;20044;-71
2021/10/23 01:26:00;;;;;;;35.85;19.73;;;12.20;99.90;;;;;;5067924;28;20035;-71
2021/10/23 01:29:06;;;;;;;33.35;21.05;;;12.20;99.90;;;;;;5064836;28;20098;-71
2021/10/23 01:32:10;;;;;;;40.00;23.40;;;12.20;99.90;;;;;;5062823;28;20120;-71
2021/10/23 01:35:14;;;;;;;61.90;34.40;;;12.30;99.90;;;;;;5054336;28;20055;-72
2021/10/23 01:38:18;;;;;;;53.08;29.38;;;12.40;99.90;;;;;;5054780;28;20048;-71
2021/10/23 01:41:23;;;;;;;51.85;27.75;;;12.40;99.90;;;;;;5058011;28;20040;-71
2021/10/23 01:44:35;;;;;;;37.95;23.27;;;12.40;99.90;;;;;;5060506;28;20051;-71
2021/10/23 01:47:43;;;;;;;36.05;20.63;;;12.40;99.90;;;;;;5056496;28;20043;-71
2021/10/23 01:50:47;;;;;;;39.42;22.58;;;12.30;99.90;;;;;;5066181;28;20035;-71
2021/10/23 01:53:52;;;;;;;36.13;21.05;;;12.20;99.90;;;;;;5060136;28;20506;-71
2021/10/23 01:56:56;;;;;;;30.60;16.67;;;12.10;99.90;;;;;;5060861;28;20498;-71
2021/10/23 02:00:00;;;;;;;30.38;17.13;;;12.00;99.90;;;;;;5065087;28;20063;-71
2021/10/23 02:03:04;;;;;;;32.53;18.05;;;12.00;99.90;;;;;;5060909;28;20044;-72
2021/10/23 02:06:10;;;;;;;36.72;18.40;;;11.90;99.90;;;;;;5056207;28;20039;-71
2021/10/23 02:09:15;;;;;;;35.25;18.98;;;11.80;99.90;;;;;;5057475;28;20048;-72
2021/10/23 02:12:19;;;;;;;22.50;14.30;;;11.80;99.90;;;;;;5061534;28;20470;-71
2021/10/23 02:15:23;;;;;;;22.38;14.80;;;11.70;99.90;;;;;;5058838;28;20194;-72
2021/10/23 02:18:28;;;;;;;26.55;14.38;;;11.70;99.90;;;;;;5058733;28;20068;-72
2021/10/23 02:21:32;;;;;;;27.85;15.25;;;11.60;99.90;;;;;;5065021;28;20055;-72
2021/10/23 02:24:36;;;;;;;29.15;15.82;;;11.60;99.90;;;;;;5067183;28;20047;-71
2021/10/23 02:27:41;;;;;;;30.85;17.42;;;11.60;99.90;;;;;;5063290;28;20044;-72
2021/10/23 02:30:45;;;;;;;28.30;16.88;;;11.60;99.90;;;;;;5061736;28;20039;-72
2021/10/23 02:33:49;;;;;;;32.53;16.30;;;11.60;99.90;;;;;;5070035;28;20410;-72
2021/10/23 02:36:54;;;;;;;26.10;14.75;;;11.60;99.90;;;;;;5065100;28;20110;-72
2021/10/23 02:39:58;;;;;;;21.75;13.70;;;11.60;99.90;;;;;;5068829;28;20127;-72
2021/10/23 02:43:02;;;;;;;26.13;14.88;;;11.60;99.90;;;;;;5069353;28;20043;-72
2021/10/23 02:46:06;;;;;;;23.60;14.25;;;11.60;99.90;;;;;;5069573;28;20395;-72
2021/10/23 02:49:10;;;;;;;25.50;15.65;;;11.50;99.90;;;;;;5070420;28;20051;-72
2021/10/23 02:52:14;;;;;;;24.17;15.88;;;11.60;99.90;;;;;;5067783;28;20040;-72
2021/10/23 02:55:18;;;;;;;27.85;14.55;;;11.60;99.90;;;;;;5065516;28;20047;-72
2021/10/23 02:58:22;;;;;;;29.27;14.98;;;11.60;99.90;;;;;;5066889;28;20036;-72
2021/10/23 03:01:26;;;;;;;20.75;14.18;;;11.60;99.90;;;;;;5063480;28;20368;-72
2021/10/23 03:04:30;;;;;;;27.33;16.00;;;11.50;99.90;;;;;;5058209;28;20048;-72
2021/10/23 03:07:34;;;;;;;25.80;16.80;;;11.60;99.90;;;;;;5060442;28;20043;-72
2021/10/23 03:10:39;;;;;;;29.27;16.77;;;11.50;99.90;;;;;;5067775;28;20502;-72
2021/10/23 03:13:43;;;;;;;23.85;14.75;;;11.40;99.90;;;;;;5061100;28;20044;-72
2021/10/23 03:16:47;;;;;;;50.90;14.55;;;11.30;99.90;;;;;;5061179;28;20044;-72
2021/10/23 03:19:51;;;;;;;67.22;14.27;;;11.10;99.90;;;;;;5065701;28;20055;-72
2021/10/23 03:22:55;;;;;;;48.20;10.10;;;11.00;99.90;;;;;;5061234;28;20047;-72
2021/10/23 03:25:59;;;;;;;46.42;9.48;;;10.90;99.90;;;;;;5063956;28;20461;-72
2021/10/23 03:29:03;;;;;;;124.85;10.80;;;10.90;99.90;;;;;;5068204;28;20130;-72
2021/10/23 03:32:07;;;;;;;27.38;7.50;;;10.90;99.90;;;;;;5057247;28;20159;-72
2021/10/23 03:35:11;;;;;;;123.57;8.23;;;10.90;99.90;;;;;;5054906;28;20040;-72
2021/10/23 03:38:15;;;;;;;56.78;8.05;;;10.90;99.90;;;;;;5060289;28;20470;-72
2021/10/23 03:41:19;;;;;;;90.47;8.80;;;10.80;99.90;;;;;;5059961;28;20040;-72
2021/10/23 03:44:23;;;;;;;97.28;8.68;;;10.80;99.90;;;;;;5063709;28;20505;-72
2021/10/23 03:47:27;;;;;;;104.40;10.35;;;10.80;99.90;;;;;;5062543;28;20478;-72
2021/10/23 03:50:33;;;;;;;16.70;6.35;;;10.90;99.90;;;;;;5065264;28;20495;-72
2021/10/23 03:53:37;;;;;;;22.23;6.45;;;10.90;99.90;;;;;;5058687;28;20040;-72
2021/10/23 03:56:42;;;;;;;17.92;6.60;;;10.90;99.90;;;;;;5064056;28;20039;-72
2021/10/23 03:59:46;;;;;;;17.70;6.35;;;11.00;99.90;;;;;;5064170;28;20039;-72
2021/10/23 04:02:49;;;;;;;42.38;6.18;;;11.00;99.90;;;;;;5064826;28;20391;-72
2021/10/23 04:05:54;;;;;;;44.03;6.20;;;11.00;99.90;;;;;;5061539;28;20047;-72
2021/10/23 04:08:57;;;;;;;41.90;5.32;;;11.00;99.90;;;;;;5069083;28;20051;-72
2021/10/23 04:12:01;;;;;;;12.48;4.80;;;10.90;99.90;;;;;;5063013;28;20494;-72
2021/10/23 04:15:06;;;;;;;24.63;5.45;;;10.90;99.90;;;;;;5064943;28;20047;-72
2021/10/23 04:18:12;;;;;;;10.32;5.78;;;10.90;99.90;;;;;;5063275;28;20040;-72
2021/10/23 04:21:16;;;;;;;10.88;5.25;;;10.90;99.90;;;;;;5065172;28;20047;-72
2021/10/23 04:24:20;;;;;;;10.52;4.95;;;10.90;99.90;;;;;;5056172;28;20495;-73
2021/10/23 04:27:25;;;;;;;9.73;4.97;;;10.90;99.90;;;;;;5059082;28;20040;-73
2021/10/23 04:30:29;;;;;;;11.48;5.40;;;10.90;99.90;;;;;;5060398;28;20043;-72
2021/10/23 04:33:33;;;;;;;18.13;5.10;;;10.90;99.90;;;;;;5060875;28;20051;-72
2021/10/23 04:36:38;;;;;;;56.00;7.13;;;10.90;99.90;;;;;;5051469;28;20052;-72
2021/10/23 04:39:42;;;;;;;36.97;5.75;;;10.90;99.90;;;;;;5061395;28;20035;-72
2021/10/23 04:42:46;;;;;;;60.95;6.53;;;10.80;99.90;;;;;;5063139;28;20059;-73
2021/10/23 04:45:50;;;;;;;68.32;7.97;;;10.80;99.90;;;;;;5069523;28;20392;-72
2021/10/23 04:48:54;;;;;;;31.05;10.43;;;10.90;99.90;;;;;;5061012;28;20048;-73
2021/10/23 04:51:58;;;;;;;13.48;7.55;;;10.90;99.90;;;;;;5062431;28;20063;-72
2021/10/23 04:55:02;;;;;;;23.08;8.63;;;10.90;99.90;;;;;;5066258;28;20051;-72
2021/10/23 04:58:06;;;;;;;26.65;8.55;;;10.90;99.90;;;;;;5061810;28;20043;-72
2021/10/23 05:01:11;;;;;;;9.35;7.07;;;10.90;99.90;;;;;;5055927;28;20032;-72
2021/10/23 05:04:15;;;;;;;24.48;8.48;;;10.90;99.90;;;;;;5061024;28;20035;-72
2021/10/23 05:07:19;;;;;;;33.70;8.82;;;10.80;99.90;;;;;;5057600;28;20035;-72
2021/10/23 05:10:23;;;;;;;52.65;9.00;;;10.80;99.90;;;;;;5060420;28;20063;-72
2021/10/23 05:13:27;;;;;;;63.13;10.10;;;10.90;99.90;;;;;;5064106;28;20028;-72
2021/10/23 05:16:31;;;;;;;15.38;7.32;;;10.90;99.90;;;;;;5059897;28;20383;-72
2021/10/23 05:19:35;;;;;;;12.20;5.88;;;10.90;99.90;;;;;;5062954;28;20047;-73
2021/10/23 05:22:40;;;;;;;34.33;7.72;;;10.80;99.90;;;;;;5062350;28;20490;-73
2021/10/23 05:25:44;;;;;;;21.33;6.82;;;10.80;99.90;;;;;;5065242;28;20043;-72
2021/10/23 05:28:48;;;;;;;44.35;6.75;;;10.90;99.90;;;;;;5062246;28;20043;-73
2021/10/23 05:31:52;;;;;;;20.38;6.03;;;10.90;99.90;;;;;;5067130;28;20047;-73
2021/10/23 05:34:56;;;;;;;32.50;7.32;;;10.90;99.90;;;;;;5060405;28;20043;-72
2021/10/23 05:38:00;;;;;;;36.33;7.85;;;10.80;99.90;;;;;;5067799;28;20047;-73
2021/10/23 05:41:04;;;;;;;19.38;6.72;;;10.90;99.90;;;;;;5059331;28;20047;-72
2021/10/23 05:44:08;;;;;;;18.13;7.15;;;10.90;99.90;;;;;;5012118;28;1346357;-73
2021/10/23 05:47:12;;;;;;;13.15;6.55;;;10.90;99.90;;;;;;5066699;28;20051;-72
2021/10/23 05:50:17;;;;;;;30.90;7.60;;;11.00;99.90;;;;;;5058191;28;20044;-72
2021/10/23 05:53:21;;;;;;;20.05;8.15;;;11.00;99.90;;;;;;5061174;28;20039;-73
2021/10/23 05:56:26;;;;;;;18.27;8.20;;;11.00;99.90;;;;;;5068453;28;20043;-72
2021/10/23 05:59:30;;;;;;;16.75;8.18;;;11.00;99.90;;;;;;5059625;28;20047;-72
2021/10/23 06:02:35;;;;;;;16.02;8.13;;;11.10;99.90;;;;;;5062526;28;20060;-72
2021/10/23 06:05:38;;;;;;;21.13;8.82;;;11.20;99.90;;;;;;5070257;28;20043;-73
2021/10/23 06:08:42;;;;;;;36.75;9.00;;;11.30;99.90;;;;;;5070350;28;20056;-72
2021/10/23 06:11:48;;;;;;;20.08;8.55;;;11.30;99.90;;;;;;5065720;28;20061;-73
2021/10/23 06:14:54;;;;;;;21.38;9.10;;;11.40;99.90;;;;;;5070451;28;20059;-73
2021/10/23 06:18:01;;;;;;;19.27;8.75;;;11.50;99.90;;;;;;5065694;28;20052;-73
2021/10/23 06:21:05;;;;;;;30.70;13.50;;;11.60;99.90;;;;;;5064643;28;20039;-73
2021/10/23 06:24:10;;;;;;;38.03;17.27;;;11.70;99.90;;;;;;5061664;28;20550;-73
2021/10/23 06:27:14;;;;;;;25.35;16.08;;;11.80;99.90;;;;;;5066718;28;20055;-73
2021/10/23 06:30:19;;;;;;;20.58;15.65;;;11.90;99.90;;;;;;5066121;28;20379;-73
2021/10/23 06:33:23;;;;;;;15.95;10.85;;;12.10;99.90;;;;;;5066603;28;20039;-72
2021/10/23 06:36:27;;;;;;;14.40;8.73;;;12.20;99.90;;;;;;5061613;28;20048;-72
2021/10/23 06:39:31;;;;;;;12.52;8.60;;;12.40;99.90;;;;;;5066012;28;20047;-72
2021/10/23 06:42:37;;;;;;;10.98;8.05;;;12.60;99.90;;;;;;5064535;28;20249;-72
2021/10/23 06:45:41;;;;;;;9.95;7.78;;;12.80;99.90;;;;;;5064723;28;20055;-73
2021/10/23 06:48:45;;;;;;;11.02;7.38;;;13.00;99.90;;;;;;5059707;28;20048;-73
2021/10/23 06:51:49;;;;;;;8.57;7.22;;;13.10;99.90;;;;;;5062558;28;20048;-72
2021/10/23 06:54:55;;;;;;;8.63;7.07;;;13.20;99.90;;;;;;5064562;28;20056;-72
2021/10/23 06:57:59;;;;;;;11.45;6.88;;;13.20;99.90;;;;;;5066534;28;20035;-72
2021/10/23 07:01:04;;;;;;;10.63;6.57;;;13.20;99.90;;;;;;5065440;28;20052;-72
2021/10/23 07:04:09;;;;;;;8.13;6.50;;;13.40;99.90;;;;;;5069026;28;20047;-73
2021/10/23 07:07:13;;;;;;;10.30;6.88;;;13.30;99.90;;;;;;5067850;28;20044;-72
2021/10/23 07:10:17;;;;;;;13.02;8.18;;;13.30;99.90;;;;;;5060155;28;20036;-72
2021/10/23 07:13:21;;;;;;;12.35;8.70;;;13.00;99.90;;;;;;5065728;28;20609;-72
2021/10/23 07:16:25;;;;;;;13.60;9.00;;;12.80;99.90;;;;;;5064904;28;20036;-73
2021/10/23 07:19:29;;;;;;;13.70;8.60;;;12.70;99.90;;;;;;5064589;28;20035;-72
2021/10/23 07:22:33;;;;;;;10.82;8.15;;;12.50;99.90;;;;;;5067441;28;20395;-72
2021/10/23 07:25:37;;;;;;;10.63;7.97;;;12.90;99.90;;;;;;5059830;28;20039;-72
2021/10/23 07:28:41;;;;;;;11.60;8.10;;;13.20;99.90;;;;;;5066676;28;20048;-72
2021/10/23 07:31:46;;;;;;;13.65;9.75;;;13.60;99.90;;;;;;5066643;28;20048;-72
2021/10/23 07:34:50;;;;;;;11.88;7.60;;;14.00;99.90;;;;;;5069723;28;20047;-72
2021/10/23 07:37:54;;;;;;;9.85;8.15;;;14.50;99.90;;;;;;5063793;28;20063;-72
2021/10/23 07:40:58;;;;;;;9.70;7.60;;;14.90;99.90;;;;;;5061889;28;20040;-72
2021/10/23 07:44:02;;;;;;;9.25;7.15;;;15.30;99.90;;;;;;5068621;28;20051;-72
2021/10/23 07:47:06;;;;;;;11.85;8.50;;;15.60;99.90;;;;;;5064483;28;20028;-72
2021/10/23 07:50:11;;;;;;;13.15;9.30;;;15.50;99.90;;;;;;5058302;28;20043;-72
2021/10/23 07:53:16;;;;;;;20.95;11.00;;;16.50;99.90;;;;;;5062197;28;20047;-73
2021/10/23 07:56:20;;;;;;;10.90;8.25;;;18.50;99.90;;;;;;5063816;28;20064;-73
2021/10/23 07:59:26;;;;;;;12.02;7.63;;;20.00;99.90;;;;;;5057491;28;20044;-72
2021/10/23 08:02:30;;;;;;;12.18;8.95;;;21.90;99.90;;;;;;5066765;28;20376;-73
2021/10/23 08:05:37;;;;;;;51.53;8.57;;;22.70;99.90;;;;;;5061677;28;20043;-73
2021/10/23 08:08:42;;;;;;;21.48;6.80;;;22.70;99.90;;;;;;5063996;28;20032;-73
2021/10/23 08:11:46;;;;;;;57.53;7.90;;;21.60;99.90;;;;;;5060083;28;20047;-72
2021/10/23 08:14:50;;;;;;;101.60;8.63;;;20.60;99.90;;;;;;5067590;28;20446;-72
2021/10/23 08:18:02;;;;;;;52.28;7.20;;;19.80;99.90;;;;;;5065917;28;20043;-72
2021/10/23 08:21:06;;;;;;;15.85;7.03;;;19.40;99.90;;;;;;5063408;28;21198;-72
2021/10/23 08:24:12;;;;;;;211.73;16.90;;;19.40;99.90;;;;;;5064240;28;20032;-73
2021/10/23 08:27:16;;;;;;;122.03;14.13;;;19.50;99.90;;;;;;5056721;28;20047;-72
2021/10/23 08:30:21;;;;;;;76.55;11.23;;;19.70;99.90;;;;;;5063270;28;20063;-72
2021/10/23 08:33:26;;;;;;;28.17;10.85;;;20.00;99.90;;;;;;5065445;28;20390;-72
2021/10/23 08:36:30;;;;;;;180.45;15.07;;;20.20;99.90;;;;;;5061052;28;20059;-72
2021/10/23 08:39:34;;;;;;;32.05;11.88;;;19.70;99.90;;;;;;5061955;28;20044;-72
2021/10/23 08:42:40;;;;;;;23.02;11.90;;;20.50;99.90;;;;;;5066942;28;20514;-72
2021/10/23 08:45:45;;;;;;;93.40;13.57;;;22.00;99.90;;;;;;5061971;28;20047;-73
2021/10/23 08:48:51;;;;;;;67.82;13.05;;;21.90;99.90;;;;;;5056587;28;20048;-73
2021/10/23 08:51:55;;;;;;;20.50;11.77;;;20.60;99.90;;;;;;5066363;28;20056;-72
2021/10/23 08:54:59;;;;;;;29.75;12.07;;;20.70;99.90;;;;;;5061322;28;20043;-73
2021/10/23 08:58:03;;;;;;;26.90;10.57;;;22.30;99.90;;;;;;5066926;28;20111;-72
2021/10/23 09:01:13;;;;;;;26.85;10.77;;;21.80;99.90;;;;;;5070238;28;20843;-72
2021/10/23 09:04:18;;;;;;;46.75;11.05;;;21.30;99.90;;;;;;5062225;28;20032;-72
2021/10/23 09:07:23;;;;;;;17.10;10.98;;;21.20;99.90;;;;;;5057709;28;20032;-72
2021/10/23 09:10:31;;;;;;;125.28;14.52;;;20.40;99.90;;;;;;5061557;28;20068;-72
2021/10/23 09:13:37;;;;;;;26.05;11.65;;;19.30;99.90;;;;;;5066263;28;20048;-72
2021/10/23 09:16:41;;;;;;;105.85;13.57;;;19.40;99.90;;;;;;5059359;28;20043;-72
2021/10/23 09:19:47;;;;;;;38.53;12.77;;;19.20;99.90;;;;;;5061385;28;20043;-72
2021/10/23 09:22:54;;;;;;;15.60;10.88;;;19.30;99.90;;;;;;5067046;28;20059;-72
2021/10/23 09:25:58;;;;;;;27.98;12.13;;;19.40;99.90;;;;;;5055545;28;20036;-72
2021/10/23 09:29:20;;;;;;;15.35;10.60;;;19.30;99.90;;;;;;5064622;28;20403;-72
2021/10/23 09:32:32;;;;;;;32.72;12.05;;;19.80;99.90;;;;;;5058797;28;20055;-72
2021/10/23 09:35:39;;;;;;;16.55;11.32;;;20.70;99.90;;;;;;5066574;28;20043;-72
2021/10/23 09:38:43;;;;;;;14.20;10.57;;;20.80;99.90;;;;;;5065230;28;20043;-72
2021/10/23 09:42:14;;;;;;;14.18;9.55;;;21.20;99.90;;;;;;5060500;28;20040;-71
2021/10/23 09:45:18;;;;;;;12.23;10.25;;;21.70;99.90;;;;;;5063170;28;20055;-72
2021/10/23 09:48:40;;;;;;;13.90;10.63;;;22.00;99.90;;;;;;5057315;28;20047;-72
2021/10/23 09:53:42;;;;;;;12.63;10.10;;;22.50;99.90;;;;;;5121565;27;20139;-53
2021/10/23 09:56:50;;;;;;;15.75;11.60;;;24.20;99.90;;;;;;5100206;28;20032;-51
2021/10/23 10:00:08;;;;;;;18.95;12.73;;;22.30;99.90;;;;;;5118307;28;20042;-54
2021/10/23 10:03:20;;;;;;;13.40;11.52;;;19.90;99.90;;;;;;5111050;28;20393;-55
2021/10/23 10:06:26;;;;;;;15.85;12.25;;;20.90;99.90;;;;;;5111751;28;20034;-56
2021/10/23 10:09:30;;;;;;;15.27;11.70;;;21.80;99.90;;;;;;5115414;28;20058;-57
2021/10/23 10:12:36;;;;;;;15.40;9.77;;;21.80;99.90;;;;;;5113055;28;20043;-53
2021/10/23 10:15:47;;;;;;;12.20;9.30;;;24.60;99.90;;;;;;5114400;28;20042;-54
2021/10/23 10:18:52;;;;;;;12.15;8.57;;;27.20;99.90;;;;;;5117639;28;20512;-53
2021/10/23 10:22:10;;;;;;;10.65;9.23;;;29.10;98.30;;;;;;5113861;28;20046;-53
2021/10/23 10:25:24;;;;;;;9.55;8.15;;;27.20;99.00;;;;;;5108619;28;20042;-53
2021/10/23 10:28:28;;;;;;;7.35;6.53;;;30.10;95.60;;;;;;5115040;28;20031;-56
2021/10/23 10:31:59;;;;;;;9.98;7.18;;;31.10;93.80;;;;;;5117030;28;20052;-55
2021/10/23 10:45:49;;;;;;;9.40;6.03;;;34.80;85.70;;;;;;5117201;22;20052;-52
2021/10/23 10:48:53;;;;;;;6.70;5.70;;;32.40;85.20;;;;;;5076005;28;20029;-47
2021/10/23 10:51:57;;;;;;;7.00;5.25;;;30.50;88.10;;;;;;5082145;28;20037;-48
2021/10/23 10:55:15;;;;;;;11.65;6.70;;;31.60;88.40;;;;;;5082573;28;20029;-51
2021/10/23 10:58:20;;;;;;;9.95;5.38;;;34.70;83.80;;;;;;5079593;28;20051;-53
2021/10/23 11:01:31;;;;;;;7.05;4.97;;;34.10;82.50;;;;;;5079374;28;20028;-50
2021/10/23 11:05:11;;;;;;;8.93;5.60;;;34.50;82.40;;;;;;5070387;28;20032;-49
2021/10/23 11:08:16;;;;;;;8.25;5.70;;;31.00;84.20;;;;;;5064989;28;20380;-50
2021/10/23 11:11:21;;;;;;;5.05;4.53;;;31.60;85.50;;;;;;5064946;28;20040;-52
2021/10/23 11:14:27;;;;;;;5.82;4.00;;;33.90;83.00;;;;;;5065842;28;20033;-48
2021/10/23 11:17:38;;;;;;;7.53;5.53;;;34.80;82.20;;;;;;5069435;28;20048;-48
2021/10/23 11:20:44;;;;;;;10.75;5.90;;;31.30;81.10;;;;;;5067551;28;20118;-49
2021/10/23 11:23:57;;;;;;;5.90;4.70;;;28.80;89.20;;;;;;5071338;28;20051;-53
2021/10/23 11:27:01;;;;;;;5.88;3.75;;;30.20;87.00;;;;;;5070122;28;20036;-51
2021/10/23 11:30:06;;;;;;;5.57;3.83;;;33.70;85.00;;;;;;5069810;28;20523;-51
2021/10/23 11:33:16;;;;;;;6.63;3.50;;;34.10;81.00;;;;;;5071328;28;20033;-54
2021/10/23 11:36:20;;;;;;;4.25;3.72;;;32.70;81.90;;;;;;5071010;28;20036;-50
2021/10/23 11:39:24;;;;;;;5.50;3.55;;;30.80;84.90;;;;;;5067243;28;20479;-54
2021/10/23 11:42:32;;;;;;;5.07;3.33;;;33.20;80.80;;;;;;5065716;28;20429;-52
2021/10/23 11:45:37;;;;;;;6.68;2.95;;;33.50;81.20;;;;;;5066871;28;20048;-50
2021/10/23 11:48:41;;;;;;;3.97;2.90;;;30.00;82.40;;;;;;5066913;28;20041;-51
2021/10/23 11:51:51;;;;;;;4.57;2.63;;;30.20;84.20;;;;;;5067980;28;20041;-50
2021/10/23 11:54:57;;;;;;;5.47;2.70;;;33.40;82.80;;;;;;5070011;28;20041;-50
2021/10/23 11:58:13;;;;;;;3.25;1.90;;;35.90;77.60;;;;;;5069976;28;20275;-50
2021/10/23 12:01:21;;;;;;;3.08;2.20;;;37.40;76.60;;;;;;5064889;28;20036;-50
2021/10/23 12:04:31;;;;;;;3.70;2.40;;;36.50;73.70;;;;;;5065222;28;20032;-54
2021/10/23 12:07:36;;;;;;;2.95;2.10;;;36.80;71.90;;;;;;5069573;28;20036;-49
2021/10/23 12:11:08;;;;;;;4.55;2.70;;;37.20;71.30;;;;;;5068516;28;20375;-48
2021/10/23 12:14:14;;;;;;;4.30;2.88;;;33.60;74.50;;;;;;5069843;28;20513;-48
2021/10/23 12:17:25;;;;;;;7.13;2.78;;;32.60;75.60;;;;;;5067142;28;20033;-52
2021/10/23 12:20:35;;;;;;;4.10;2.88;;;31.30;77.10;;;;;;5067269;28;20032;-51
2021/10/23 12:23:48;;;;;;;5.78;2.55;;;30.30;80.30;;;;;;5069335;28;20032;-50
2021/10/23 12:27:10;;;;;;;4.07;2.70;;;33.10;77.20;;;;;;5067557;28;20499;-51
2021/10/23 12:30:14;;;;;;;3.53;2.72;;;33.50;75.20;;;;;;5070071;28;20380;-53
2021/10/23 12:33:18;;;;;;;4.05;2.85;;;30.80;79.10;;;;;;5062730;28;20520;-50
2021/10/23 12:36:22;;;;;;;5.90;2.72;;;28.30;81.80;;;;;;5075609;28;20510;-50
2021/10/23 12:39:28;;;;;;;5.72;2.60;;;30.70;80.70;;;;;;5066865;28;20020;-53
2021/10/23 12:42:37;;;;;;;2.45;2.25;;;32.10;79.20;;;;;;5064864;28;20055;-51
2021/10/23 12:45:49;;;;;;;3.08;2.33;;;31.60;77.20;;;;;;5064953;28;20055;-52
2021/10/23 12:48:53;;;;;;;4.72;2.40;;;30.60;78.30;;;;;;5068080;28;20050;-51
2021/10/23 12:51:58;;;;;;;3.45;2.42;;;31.00;79.60;;;;;;5068588;28;20063;-50
2021/10/23 12:55:03;;;;;;;4.18;2.60;;;32.90;77.70;;;;;;5068719;28;20032;-49
2021/10/23 12:58:09;;;;;;;5.15;2.80;;;29.80;78.00;;;;;;5066442;28;20055;-53
2021/10/23 13:01:15;;;;;;;5.03;3.22;;;27.80;83.50;;;;;;5067291;28;20032;-49
2021/10/23 13:04:20;;;;;;;7.57;2.83;;;27.80;82.50;;;;;;5068463;28;20055;-49
2021/10/23 13:07:24;;;;;;;6.40;2.42;;;29.50;81.80;;;;;;5069125;28;20047;-50
2021/10/23 13:10:28;;;;;;;4.72;2.50;;;28.10;81.90;;;;;;5069110;28;20075;-49
2021/10/23 13:13:35;;;;;;;2.60;2.40;;;29.80;79.30;;;;;;5063116;28;20340;-53
2021/10/23 13:16:39;;;;;;;4.10;2.70;;;31.80;80.00;;;;;;5064615;28;20047;-49
2021/10/23 13:19:43;;;;;;;5.75;2.88;;;29.60;77.50;;;;;;5053885;28;20031;-50
2021/10/23 13:22:47;;;;;;;4.43;2.88;;;30.10;79.50;;;;;;5065692;28;20059;-53
2021/10/23 13:25:51;;;;;;;4.97;2.58;;;30.00;79.80;;;;;;5068878;28;20051;-50
2021/10/23 13:28:55;;;;;;;3.15;2.10;;;28.90;80.20;;;;;;5067738;28;20048;-49
2021/10/23 13:32:00;;;;;;;4.45;2.13;;;29.40;76.30;;;;;;5068457;28;20040;-51
2021/10/23 13:35:04;;;;;;;4.07;2.42;;;28.80;78.30;;;;;;5068058;28;20025;-49
2021/10/23 13:38:08;;;;;;;5.32;2.08;;;29.50;78.70;;;;;;5069361;28;20043;-49
2021/10/23 13:41:12;;;;;;;4.70;2.40;;;30.90;76.90;;;;;;5067377;28;20037;-49
2021/10/23 13:44:16;;;;;;;3.42;2.15;;;27.90;78.50;;;;;;5062916;28;20048;-49
2021/10/23 13:47:21;;;;;;;2.90;2.55;;;26.30;83.30;;;;;;5062930;28;20041;-49
2021/10/23 13:50:25;;;;;;;6.63;2.80;;;24.80;85.30;;;;;;5066138;28;20043;-52
2021/10/23 13:53:30;;;;;;;4.97;2.83;;;25.30;86.70;;;;;;5062945;28;20044;-53
2021/10/23 13:56:34;;;;;;;23.50;5.07;;;26.60;84.80;;;;;;5067375;28;20047;-49
2021/10/23 13:59:38;;;;;;;8.63;2.70;;;27.30;82.60;;;;;;5068015;28;20048;-49
2021/10/23 14:02:42;;;;;;;195.80;24.35;;;27.60;83.30;;;;;;5064668;28;20075;-50
2021/10/23 14:05:47;;;;;;;3.50;2.35;;;28.30;82.30;;;;;;5065207;28;20103;-49
2021/10/23 14:08:52;;;;;;;4.68;2.80;;;30.10;80.40;;;;;;5067204;28;20045;-52
2021/10/23 14:11:55;;;;;;;4.63;2.38;;;31.90;77.80;;;;;;5065825;28;20047;-49
2021/10/23 14:14:59;;;;;;;5.55;2.30;;;33.20;74.30;;;;;;5067210;28;20051;-50
2021/10/23 14:18:03;;;;;;;3.80;1.90;;;33.20;74.40;;;;;;5067996;28;20051;-49
2021/10/23 14:21:10;;;;;;;3.42;2.10;;;31.80;76.20;;;;;;5067422;28;20035;-49
2021/10/23 14:24:14;;;;;;;4.20;2.42;;;30.10;77.80;;;;;;5065990;28;20506;-51
2021/10/23 14:30:51;;;;;;;4.05;2.85;;;27.20;81.30;;;;;;5071632;28;20051;-48
2021/10/23 14:33:55;;;;;;;7.97;2.40;;;26.30;85.00;;;;;;5067072;28;20052;-48
2021/10/23 14:37:00;;;;;;;3.83;2.83;;;25.70;86.70;;;;;;5067160;28;20040;-50
2021/10/23 14:40:07;;;;;;;7.25;3.00;;;25.20;88.60;;;;;;5070380;28;20395;-49
2021/10/23 14:43:11;;;;;;;3.15;2.80;;;24.90;88.80;;;;;;5069465;28;20043;-51
2021/10/23 14:46:15;;;;;;;8.43;2.92;;;24.60;90.30;;;;;;5067118;28;20056;-52
2021/10/23 14:49:19;;;;;;;3.58;2.67;;;24.30;90.50;;;;;;5064125;28;20036;-50
2021/10/23 14:52:24;;;;;;;3.70;2.60;;;24.80;90.90;;;;;;5069203;28;20048;-48
2021/10/23 14:55:28;;;;;;;7.72;2.90;;;25.00;89.40;;;;;;5071162;28;20052;-48
2021/10/23 14:58:36;;;;;;;3.38;2.65;;;24.40;86.90;;;;;;5066751;28;20039;-49
2021/10/23 15:01:40;;;;;;;4.15;2.85;;;23.90;88.60;;;;;;5069264;28;20032;-48
2021/10/23 15:04:44;;;;;;;4.38;2.85;;;23.40;89.30;;;;;;5067770;28;20053;-48
2021/10/23 15:07:48;;;;;;;5.55;2.70;;;22.70;89.70;;;;;;5069160;28;20036;-48
2021/10/23 15:10:52;;;;;;;8.07;3.00;;;21.90;90.50;;;;;;5070972;28;20040;-48
2021/10/23 15:13:56;;;;;;;5.22;3.50;;;21.30;91.60;;;;;;5068703;28;20040;-50
2021/10/23 15:17:00;;;;;;;5.57;4.15;;;20.70;92.20;;;;;;5071407;28;20521;-50
2021/10/23 15:20:04;;;;;;;5.18;3.15;;;20.40;92.50;;;;;;5070610;28;20037;-50
2021/10/23 15:23:08;;;;;;;8.25;5.60;;;20.30;92.60;;;;;;5061900;28;20047;-50
2021/10/23 15:26:12;;;;;;;4.30;3.58;;;20.20;93.10;;;;;;5072471;28;20033;-48
2021/10/23 15:29:20;;;;;;;6.55;4.18;;;20.30;92.40;;;;;;5068221;28;20514;-48
2021/10/23 15:32:25;;;;;;;6.70;4.25;;;20.30;92.80;;;;;;5066010;28;20047;-49
2021/10/23 15:35:37;;;;;;;7.65;3.80;;;20.10;93.00;;;;;;5066327;28;20059;-52
2021/10/23 15:38:44;;;;;;;;;;;19.80;93.10;;;;;;5068787;28;20040;-50
2021/10/23 15:41:51;;;;;;;8.75;4.68;;;19.70;93.50;;;;;;5067834;28;19916;-49
2021/10/23 15:44:56;;;;;;;8.90;6.60;;;19.50;93.60;;;;;;5069683;28;20047;-48
2021/10/23 15:48:01;;;;;;;8.65;5.85;;;19.40;94.10;;;;;;5069776;28;20040;-50
2021/10/23 15:51:05;;;;;;;8.02;6.20;;;19.20;94.10;;;;;;5069837;28;20500;-48
2021/10/23 15:54:09;;;;;;;10.30;6.32;;;19.10;94.60;;;;;;5063484;28;20024;-48
2021/10/23 15:57:13;;;;;;;9.48;5.28;;;19.10;94.80;;;;;;5063128;28;20043;-48
2021/10/23 16:00:17;;;;;;;9.48;6.43;;;18.90;94.90;;;;;;5069677;28;20524;-48
2021/10/23 16:03:22;;;;;;;6.63;5.18;;;18.90;95.10;;;;;;5069080;28;20406;-48
2021/10/23 16:06:25;;;;;;;10.73;6.78;;;18.70;95.00;;;;;;5065725;28;20039;-47
2021/10/23 16:09:29;;;;;;;8.32;5.60;;;18.60;95.70;;;;;;5066392;28;20051;-51